logo
Search for airport 
image banner adimage banner adimage banner ad
image banner ad

SCOC - Las Araucarias

Located in Puerto Octay, Chile

ICAO - SCOC, IATA -

Data provided by Airmate  

General information

Coordinates: S40°59'34" W72°39'40"
Elevation is 600 feet MSL.
Magnetic variation is 8° East
View others Airports in Los Lagos

Operational data

Special qualification required
Current time UTC:
Current local time:
METAR: SCJO 141700Z 00000KT 0400 FG VV002 05/05 Q1022
TAF: TAF AMD SCJO 141411Z 1414/1424 05005KT 0300 FG OVC002 TN04/1415Z TX08/1419Z BECMG 1417/1419 2000 BR BKN007 BECMG 1419/1421 9999 NSW SCT010 BKN030
View NOTAMs / SUP AIP / TFR affecting this airport [VIEW]
Communications frequencies: [VIEW]

Runways:

RWY identifierQFULength (ft)Width (ft)SurfaceLDA (ft)
17176°197662GRAS
35356°197662GRAS

Airport contact information

Address: Puerto Octay Chile

Satellite view of SCOC